createdAt,value
2019-02-15T13:10:41.272Z,56.10
2019-02-15T13:15:08.472Z,54.30
2019-02-15T13:18:39.911Z,58.20
2019-02-15T13:21:09.344Z,59.50
2019-02-15T13:23:38.724Z,61.80
2019-02-15T13:26:08.948Z,61.20
2019-02-15T13:28:38.281Z,62.40
2019-02-15T13:31:07.985Z,60.50
2019-02-15T13:33:37.349Z,60.90
2019-02-15T13:36:06.886Z,60.40
2019-02-15T13:38:36.305Z,61.60
2019-02-15T13:41:05.938Z,63.90
2019-02-15T13:46:08.826Z,63.20
2019-02-15T13:48:39.294Z,63.50
2019-02-15T13:51:09.617Z,61.80
2019-02-15T13:53:39.982Z,62.80
2019-02-15T13:56:10.169Z,64.50
2019-02-15T13:58:40.546Z,62.40
2019-02-15T14:01:10.801Z,61.80
2019-02-15T14:03:41.043Z,63.00
2019-02-15T14:06:11.397Z,61.90
2019-02-15T14:08:41.822Z,62.00
2019-02-15T14:11:12.498Z,62.50
2019-02-15T14:13:42.683Z,62.30
2019-02-15T14:16:12.976Z,64.20
2019-02-15T14:18:43.378Z,62.00
2019-02-15T14:21:13.573Z,61.60
2019-02-15T14:23:43.958Z,62.80
2019-02-15T14:26:14.214Z,62.40
2019-02-15T14:28:44.740Z,63.10
2019-02-15T14:31:15.116Z,60.90
2019-02-15T14:33:45.316Z,62.10
2019-02-15T14:36:15.629Z,60.70
2019-02-15T14:38:46.003Z,59.60
2019-02-15T14:41:16.255Z,59.80
2019-02-15T14:43:46.735Z,60.00
2019-02-15T14:46:17.227Z,60.90
2019-02-15T14:48:47.852Z,60.20
2019-02-15T14:51:18.113Z,61.40
2019-02-15T14:53:48.658Z,61.20
2019-02-15T14:56:18.940Z,60.50
2019-02-15T14:58:49.284Z,61.80
2019-02-15T15:01:19.600Z,61.30
2019-02-15T15:03:49.948Z,59.90
2019-02-15T15:06:20.123Z,59.70
2019-02-15T15:08:50.375Z,60.10
2019-02-15T15:11:20.711Z,60.70
2019-02-15T15:13:51.037Z,61.10
2019-02-15T15:16:21.345Z,61.30
2019-02-15T15:18:51.715Z,61.00
2019-02-15T15:21:21.993Z,60.20
2019-02-15T15:23:52.211Z,60.70
2019-02-15T15:26:22.547Z,61.80
2019-02-15T15:28:52.889Z,62.10
2019-02-15T15:31:23.319Z,63.60
2019-02-15T15:33:53.710Z,63.60
2019-02-15T15:36:23.981Z,64.50
2019-02-15T15:38:54.281Z,64.50
2019-02-15T15:41:24.721Z,65.50
2019-02-15T15:43:54.974Z,66.00
2019-02-15T15:46:25.341Z,66.40
2019-02-15T15:48:55.621Z,67.50
2019-02-15T15:51:25.799Z,68.10
2019-02-15T15:53:56.346Z,68.00
2019-02-15T15:56:26.738Z,68.70
2019-02-15T15:58:57.031Z,69.50
2019-02-15T16:01:27.301Z,70.50
2019-02-15T16:03:57.590Z,70.60
2019-02-15T16:06:27.863Z,70.00
2019-02-15T16:08:58.186Z,70.00
2019-02-15T16:11:28.779Z,70.60
2019-02-15T16:13:59.114Z,70.90
2019-02-15T16:16:29.359Z,71.20
2019-02-15T16:18:59.673Z,71.80
2019-02-15T16:21:30.007Z,72.00
2019-02-15T16:24:00.775Z,72.40
2019-02-15T16:26:32.749Z,72.70
2019-02-15T16:29:03.142Z,72.90
2019-02-15T16:31:33.336Z,73.50
2019-02-15T16:34:03.624Z,74.20
2019-02-15T16:36:33.883Z,74.20
2019-02-15T16:39:05.871Z,74.70
2019-02-15T16:41:36.433Z,75.40
2019-02-15T16:44:07.031Z,75.30
2019-02-15T16:46:37.305Z,76.40
2019-02-15T16:49:08.089Z,76.90
2019-02-15T16:51:39.084Z,77.10
2019-02-15T16:54:09.429Z,77.00
2019-02-15T16:56:39.614Z,77.00
2019-02-15T16:59:10.757Z,77.60
2019-02-15T17:01:41.018Z,77.30
2019-02-15T17:04:11.595Z,77.50
2019-02-15T17:06:41.758Z,77.50
2019-02-15T17:09:16.876Z,77.60
2019-02-15T17:11:47.177Z,77.70
2019-02-15T17:14:17.451Z,77.60
2019-02-15T17:16:48.005Z,77.50
2019-02-15T17:19:18.755Z,77.40
2019-02-15T17:21:49.004Z,77.80
2019-02-15T17:24:19.300Z,78.20
2019-02-15T17:26:49.628Z,78.10
2019-02-15T17:29:20.313Z,77.90
2019-02-15T17:31:50.594Z,77.70
2019-02-15T17:34:20.858Z,77.90
2019-02-15T17:36:51.029Z,78.10
2019-02-15T17:39:21.325Z,77.60
2019-02-15T17:41:51.626Z,77.40
2019-02-15T17:44:21.888Z,77.20
2019-02-15T17:46:52.129Z,77.10
2019-02-15T17:49:22.410Z,77.10
2019-02-15T17:51:52.676Z,76.60
2019-02-15T17:54:22.961Z,77.00
2019-02-15T17:56:53.216Z,75.90
2019-02-15T17:59:23.870Z,74.80
2019-02-15T18:01:54.213Z,74.20
2019-02-15T18:04:24.595Z,74.50
2019-02-15T18:06:54.842Z,74.30
2019-02-15T18:09:25.234Z,74.70
2019-02-15T18:11:55.504Z,74.80
2019-02-15T18:14:25.941Z,75.50
2019-02-15T18:16:56.135Z,76.10
2019-02-15T18:19:27.586Z,76.50
2019-02-15T18:21:57.834Z,76.80
2019-02-15T18:24:28.042Z,76.90
2019-02-15T18:26:58.356Z,76.70
2019-02-15T18:29:28.638Z,76.90
2019-02-15T18:31:58.840Z,77.80
2019-02-15T18:34:29.196Z,77.90
2019-02-15T18:36:59.530Z,77.60
2019-02-15T18:39:29.860Z,77.50
2019-02-15T18:42:00.186Z,77.40
2019-02-15T18:44:30.478Z,78.40
2019-02-15T18:47:00.732Z,77.90
2019-02-15T18:49:31.085Z,78.10
2019-02-15T18:52:01.575Z,78.10
2019-02-15T18:54:31.930Z,78.20
2019-02-15T18:57:02.301Z,78.70
2019-02-15T18:59:32.713Z,78.60
2019-02-15T19:02:03.087Z,79.90
2019-02-15T19:04:33.430Z,79.60
2019-02-15T19:07:04.167Z,79.10
2019-02-15T19:09:34.463Z,79.20
2019-02-15T19:12:04.754Z,79.00
2019-02-15T19:14:35.054Z,78.70
2019-02-15T19:17:05.677Z,79.20
2019-02-15T19:19:36.039Z,79.00
2019-02-15T19:22:06.343Z,79.40
2019-02-15T19:24:36.633Z,78.80
2019-02-15T19:27:06.839Z,79.10
2019-02-15T19:29:37.112Z,79.30
2019-02-15T19:32:07.286Z,79.60
2019-02-15T19:34:37.581Z,79.60
2019-02-15T19:37:07.911Z,80.20
2019-02-15T19:39:38.561Z,80.90
2019-02-15T19:42:13.783Z,81.10
2019-02-15T19:44:44.232Z,81.00
2019-02-15T19:47:14.561Z,81.30
2019-02-15T19:49:44.894Z,81.50
2019-02-15T19:52:15.283Z,81.20
2019-02-15T19:54:45.589Z,81.60
2019-02-15T19:57:15.829Z,81.90
2019-02-15T19:59:53.385Z,81.90
2019-02-15T20:02:18.279Z,82.50
2019-02-15T20:04:48.613Z,82.90
2019-02-15T20:07:19.138Z,83.10
2019-02-15T20:09:49.460Z,82.90
2019-02-15T20:12:20.037Z,83.40
2019-02-15T20:14:50.490Z,83.90
2019-02-15T20:17:23.794Z,84.20
2019-02-15T20:19:54.337Z,84.20
2019-02-15T20:22:24.594Z,84.40
2019-02-15T20:24:54.809Z,84.60
2019-02-15T20:27:25.143Z,85.40
2019-02-15T20:29:55.429Z,85.40
2019-02-15T20:32:25.935Z,85.20
2019-02-15T20:34:56.451Z,85.50
2019-02-15T20:37:27.066Z,85.80
2019-02-15T20:39:57.460Z,86.30
2019-02-15T20:42:27.825Z,86.40
2019-02-15T20:44:59.403Z,86.70
2019-02-15T20:47:29.739Z,86.80
2019-02-15T20:50:00.172Z,87.10
2019-02-15T20:52:30.698Z,87.50
2019-02-15T20:55:01.058Z,87.70
2019-02-15T20:57:31.559Z,87.50
2019-02-15T21:00:01.964Z,87.50
2019-02-15T21:02:33.484Z,88.10
2019-02-15T21:05:04.367Z,88.00
2019-02-15T21:07:35.009Z,88.10
2019-02-15T21:10:05.771Z,88.40
2019-02-15T21:12:36.688Z,88.60
2019-02-15T21:15:07.391Z,88.80
2019-02-15T21:17:37.853Z,88.70
2019-02-15T21:20:09.719Z,89.10
2019-02-15T21:22:40.009Z,89.00
2019-02-15T21:25:11.863Z,89.20
2019-02-15T21:27:42.556Z,89.40
2019-02-15T21:30:14.194Z,89.60
2019-02-15T21:32:44.738Z,89.90
2019-02-15T21:35:15.191Z,90.00
2019-02-15T21:37:45.591Z,90.00
2019-02-15T21:40:16.406Z,90.00
2019-02-15T21:42:46.882Z,90.50
2019-02-15T21:45:17.229Z,90.50
2019-02-15T21:47:47.604Z,90.70
2019-02-15T21:50:18.076Z,90.50
2019-02-15T21:52:48.350Z,90.40
2019-02-15T21:55:18.640Z,90.60
2019-02-15T21:57:48.910Z,90.70
2019-02-15T22:00:19.702Z,90.70
2019-02-15T22:02:49.938Z,90.80
2019-02-15T22:05:20.378Z,90.70
2019-02-15T22:07:50.894Z,90.90
2019-02-15T22:10:21.298Z,91.10
2019-02-15T22:12:51.676Z,91.10
2019-02-15T22:15:22.383Z,91.20
2019-02-15T22:17:52.652Z,91.30
2019-02-15T22:20:26.614Z,91.20
2019-02-15T22:22:55.076Z,91.20
2019-02-15T22:25:27.216Z,91.40
2019-02-15T22:27:57.640Z,91.40
2019-02-15T22:30:28.113Z,91.50
2019-02-15T22:33:00.525Z,91.50
2019-02-15T22:35:30.934Z,91.50
2019-02-15T22:38:01.206Z,91.60
2019-02-15T22:40:33.695Z,91.50
2019-02-15T22:43:06.878Z,91.60
2019-02-15T22:45:38.341Z,91.60
2019-02-15T22:48:09.465Z,91.80
2019-02-15T22:50:40.602Z,91.90
2019-02-15T22:53:11.528Z,91.90
2019-02-15T22:55:41.847Z,91.90
2019-02-15T22:58:12.522Z,91.90
2019-02-15T23:01:01.201Z,91.60
2019-02-15T23:03:31.617Z,92.00
2019-02-15T23:06:01.916Z,92.10
2019-02-15T23:08:32.149Z,92.00
2019-02-15T23:11:03.215Z,92.00
2019-02-15T23:13:33.782Z,92.00
2019-02-15T23:16:04.151Z,92.00
2019-02-15T23:18:34.450Z,92.00
2019-02-15T23:21:04.984Z,92.10
2019-02-15T23:23:35.350Z,92.20
2019-02-15T23:26:05.657Z,92.20
2019-02-15T23:28:35.966Z,92.40
2019-02-15T23:31:06.344Z,92.20
2019-02-15T23:33:37.029Z,92.30
2019-02-15T23:36:07.358Z,92.30
2019-02-15T23:38:37.645Z,92.30
2019-02-15T23:41:07.927Z,92.30
2019-02-15T23:43:39.219Z,92.40
